aviador You're here:

CYSC Decoded Metar

SHERBROOKE in QC, CANADA
Report Time2017-05-23 20:00:00
UTC Time2017-05-23 20:29:12
Flight Rules vfr VFR
Wind280° at 08 Gusting to 15 kt
W.Decomp.*RWY 32: 7.4 kt HW 3.1 kt LCW
W.Rank280° ranks 4
Current wind is below 280° avg. (9.4)
Visibility9999 m
Phenomena:N/A
Clouds:Broken 055 Hf
Broken 071 Hf
Expected CloudBase > 4,000 ft AGL from Temp-Dew spread
Ceiling5,500 ft
Temp18°C (ISA +5)
Dew Point08°C (52% RH)
AAT14.7°C
QNH1009 hPa
Density Alt1,611 ft
Elevation791 ft
Report Wrong Elevation
Raw Report
CYSC 232000Z AUTO 28008G15KT 9SM BKN055 BKN071 18/08 A2980 RMK
SLP094 DENSITY ALT 1400FT=

Extra information for CYSC:More info

Metar Taf Metar & Taf Last 4 Metars F.Rules Stats Wind Profile Meteogram Temp Stats Airport Information Weather charts Add Link Nearby VenuesMetar ALERT Operation Metar Decoded Social comments